sensor_id;sensor_type;location;lat;lon;timestamp;pressure;altitude;pressure_sealevel;temperature;humidity
37486;BME280;23341;50.296;18.960;2023-05-22T00:00:34;49738.38;;;-144.43;67.20
37486;BME280;23341;50.296;18.960;2023-05-22T00:05:57;49726.38;;;-144.43;66.49
37486;BME280;23341;50.296;18.960;2023-05-22T00:11:03;49754.38;;;-144.43;67.04
37486;BME280;23341;50.296;18.960;2023-05-22T00:16:07;49692.41;;;-144.43;67.26
37486;BME280;23341;50.296;18.960;2023-05-22T00:21:12;49736.38;;;-144.43;67.86
37486;BME280;23341;50.296;18.960;2023-05-22T00:26:19;49734.38;;;-144.43;67.19
37486;BME280;23341;50.296;18.960;2023-05-22T00:31:24;49694.41;;;-144.43;67.02
37486;BME280;23341;50.296;18.960;2023-05-22T00:36:29;49706.41;;;-144.43;66.45
37486;BME280;23341;50.296;18.960;2023-05-22T00:41:36;49714.41;;;-144.43;67.57
37486;BME280;23341;50.296;18.960;2023-05-22T00:46:40;49678.41;;;-144.43;66.63
37486;BME280;23341;50.296;18.960;2023-05-22T00:51:44;49664.44;;;-144.43;67.18
37486;BME280;23341;50.296;18.960;2023-05-22T00:56:50;49692.41;;;-144.43;67.58
37486;BME280;23341;50.296;18.960;2023-05-22T01:01:55;49656.44;;;-144.43;68.22
37486;BME280;23341;50.296;18.960;2023-05-22T01:06:59;49668.44;;;-144.43;68.37
37486;BME280;23341;50.296;18.960;2023-05-22T01:12:14;49668.44;;;-144.43;67.66
37486;BME280;23341;50.296;18.960;2023-05-22T01:17:27;49634.44;;;-144.43;68.64
37486;BME280;23341;50.296;18.960;2023-05-22T01:22:55;49636.44;;;-144.43;69.70
37486;BME280;23341;50.296;18.960;2023-05-22T01:28:17;49646.44;;;-144.43;70.25
37486;BME280;23341;50.296;18.960;2023-05-22T01:33:32;49634.44;;;-144.43;69.19
37486;BME280;23341;50.296;18.960;2023-05-22T01:38:40;49606.47;;;-144.43;68.10
37486;BME280;23341;50.296;18.960;2023-05-22T01:43:45;49632.44;;;-144.43;68.67
37486;BME280;23341;50.296;18.960;2023-05-22T01:48:51;49622.47;;;-144.43;69.18
37486;BME280;23341;50.296;18.960;2023-05-22T01:54:00;49626.44;;;-144.43;69.85
37486;BME280;23341;50.296;18.960;2023-05-22T01:59:13;49586.47;;;-144.43;70.44
37486;BME280;23341;50.296;18.960;2023-05-22T02:04:22;49622.47;;;-144.43;71.21
37486;BME280;23341;50.296;18.960;2023-05-22T02:09:28;49600.47;;;-144.43;71.79
37486;BME280;23341;50.296;18.960;2023-05-22T02:14:34;49618.47;;;-144.43;72.57
37486;BME280;23341;50.296;18.960;2023-05-22T02:19:40;49596.47;;;-144.43;72.38
37486;BME280;23341;50.296;18.960;2023-05-22T02:24:46;49622.47;;;-144.43;71.42
37486;BME280;23341;50.296;18.960;2023-05-22T02:29:52;49554.50;;;-144.43;72.87
37486;BME280;23341;50.296;18.960;2023-05-22T02:34:57;49572.50;;;-144.43;73.63
37486;BME280;23341;50.296;18.960;2023-05-22T02:40:02;49586.47;;;-144.43;72.78
37486;BME280;23341;50.296;18.960;2023-05-22T02:45:09;49608.47;;;-144.43;73.09
37486;BME280;23341;50.296;18.960;2023-05-22T02:50:14;49558.50;;;-144.43;71.21
37486;BME280;23341;50.296;18.960;2023-05-22T02:55:19;49572.50;;;-144.43;71.92
37486;BME280;23341;50.296;18.960;2023-05-22T03:00:23;49570.50;;;-144.43;70.22
37486;BME280;23341;50.296;18.960;2023-05-22T03:05:31;49590.47;;;-144.43;71.05
37486;BME280;23341;50.296;18.960;2023-05-22T03:10:35;49608.47;;;-144.43;71.57
37486;BME280;23341;50.296;18.960;2023-05-22T03:15:40;49562.50;;;-144.43;70.93
37486;BME280;23341;50.296;18.960;2023-05-22T03:20:49;49562.50;;;-144.43;70.97
37486;BME280;23341;50.296;18.960;2023-05-22T03:25:54;49590.47;;;-144.43;72.21
37486;BME280;23341;50.296;18.960;2023-05-22T03:31:02;49552.50;;;-144.43;71.62
37486;BME280;23341;50.296;18.960;2023-05-22T03:36:16;49604.47;;;-144.43;71.78
37486;BME280;23341;50.296;18.960;2023-05-22T03:41:21;49578.47;;;-144.43;70.98
37486;BME280;23341;50.296;18.960;2023-05-22T03:46:26;49614.47;;;-144.43;72.00
37486;BME280;23341;50.296;18.960;2023-05-22T03:51:31;49598.47;;;-144.43;71.82
37486;BME280;23341;50.296;18.960;2023-05-22T03:56:36;49620.47;;;-144.43;71.45
37486;BME280;23341;50.296;18.960;2023-05-22T04:01:40;49622.47;;;-144.43;72.17
37486;BME280;23341;50.296;18.960;2023-05-22T04:06:46;49602.47;;;-144.43;71.10
37486;BME280;23341;50.296;18.960;2023-05-22T04:11:51;49606.47;;;-144.43;71.11
37486;BME280;23341;50.296;18.960;2023-05-22T04:16:56;49636.44;;;-144.43;71.74
37486;BME280;23341;50.296;18.960;2023-05-22T04:22:02;49638.44;;;-144.43;70.39
37486;BME280;23341;50.296;18.960;2023-05-22T04:27:06;49684.41;;;-144.43;70.15
37486;BME280;23341;50.296;18.960;2023-05-22T04:32:11;49658.44;;;-144.43;70.41
37486;BME280;23341;50.296;18.960;2023-05-22T04:37:21;49702.41;;;-144.43;70.00
37486;BME280;23341;50.296;18.960;2023-05-22T04:42:26;49706.41;;;-144.43;68.63
37486;BME280;23341;50.296;18.960;2023-05-22T04:47:31;49690.41;;;-144.43;67.31
37486;BME280;23341;50.296;18.960;2023-05-22T04:52:41;49714.41;;;-144.43;66.63
37486;BME280;23341;50.296;18.960;2023-05-22T04:57:46;49726.38;;;-144.43;63.90
37486;BME280;23341;50.296;18.960;2023-05-22T05:02:51;49738.38;;;-144.43;64.65
37486;BME280;23341;50.296;18.960;2023-05-22T05:07:56;49758.38;;;-144.43;63.77
37486;BME280;23341;50.296;18.960;2023-05-22T05:13:01;49794.34;;;-144.43;62.50
37486;BME280;23341;50.296;18.960;2023-05-22T05:18:07;49834.34;;;-144.43;61.69
37486;BME280;23341;50.296;18.960;2023-05-22T05:23:13;49844.31;;;-144.43;60.68
37486;BME280;23341;50.296;18.960;2023-05-22T05:28:17;49888.31;;;-144.43;59.56
37486;BME280;23341;50.296;18.960;2023-05-22T05:33:22;49924.28;;;-144.43;59.08
37486;BME280;23341;50.296;18.960;2023-05-22T05:38:39;49950.25;;;-144.43;59.05
37486;BME280;23341;50.296;18.960;2023-05-22T05:43:44;50010.22;;;-144.43;57.07
37486;BME280;23341;50.296;18.960;2023-05-22T05:48:48;50026.22;;;-144.43;54.78
37486;BME280;23341;50.296;18.960;2023-05-22T05:53:55;50156.16;;;-144.43;51.53
37486;BME280;23341;50.296;18.960;2023-05-22T05:59:00;50845.88;;;-144.43;42.36
37486;BME280;23341;50.296;18.960;2023-05-22T06:04:12;51553.72;;;-144.43;35.95
37486;BME280;23341;50.296;18.960;2023-05-22T06:09:20;52409.72;;;-144.43;32.01
37486;BME280;23341;50.296;18.960;2023-05-22T06:14:43;52697.75;;;-144.43;29.83
37486;BME280;23341;50.296;18.960;2023-05-22T06:19:49;53287.88;;;-144.43;28.86
37486;BME280;23341;50.296;18.960;2023-05-22T06:24:55;53241.88;;;-144.43;28.32
37486;BME280;23341;50.296;18.960;2023-05-22T06:30:02;53557.97;;;-144.43;28.03
37486;BME280;23341;50.296;18.960;2023-05-22T06:35:12;53606.00;;;-144.43;27.18
37486;BME280;23341;50.296;18.960;2023-05-22T06:40:18;53431.94;;;-144.43;26.99
37486;BME280;23341;50.296;18.960;2023-05-22T06:45:29;53315.91;;;-144.43;27.13
37486;BME280;23341;50.296;18.960;2023-05-22T06:50:59;53357.91;;;-144.43;26.05
37486;BME280;23341;50.296;18.960;2023-05-22T06:56:05;53836.09;;;-144.43;25.77
37486;BME280;23341;50.296;18.960;2023-05-22T07:01:28;53738.06;;;-144.43;25.68
37486;BME280;23341;50.296;18.960;2023-05-22T07:06:47;53089.84;;;-144.43;26.45
37486;BME280;23341;50.296;18.960;2023-05-22T07:11:54;52881.78;;;-144.43;26.34
37486;BME280;23341;50.296;18.960;2023-05-22T07:16:59;52681.75;;;-144.43;26.60
37486;BME280;23341;50.296;18.960;2023-05-22T07:22:09;53021.81;;;-144.43;26.30
37486;BME280;23341;50.296;18.960;2023-05-22T07:27:16;52481.72;;;-144.43;26.49
37486;BME280;23341;50.296;18.960;2023-05-22T07:32:23;51989.69;;;-144.43;27.01
37486;BME280;23341;50.296;18.960;2023-05-22T07:37:28;52989.81;;;-144.43;25.87
37486;BME280;23341;50.296;18.960;2023-05-22T07:42:35;53433.94;;;-144.43;25.58
37486;BME280;23341;50.296;18.960;2023-05-22T07:47:42;53718.06;;;-144.43;25.22
37486;BME280;23341;50.296;18.960;2023-05-22T07:52:47;53914.13;;;-144.43;25.01
37486;BME280;23341;50.296;18.960;2023-05-22T07:57:53;54196.28;;;-144.43;24.56
37486;BME280;23341;50.296;18.960;2023-05-22T08:03:06;54894.72;;;-144.43;24.33
37486;BME280;23341;50.296;18.960;2023-05-22T08:08:10;55281.00;;;-144.43;24.17
37486;BME280;23341;50.296;18.960;2023-05-22T08:13:16;55242.97;;;-144.43;23.24
37486;BME280;23341;50.296;18.960;2023-05-22T08:18:21;54738.59;;;-144.43;23.04
37486;BME280;23341;50.296;18.960;2023-05-22T08:23:25;54374.38;;;-144.43;22.62
37486;BME280;23341;50.296;18.960;2023-05-22T08:28:31;54570.50;;;-144.43;22.79
37486;BME280;23341;50.296;18.960;2023-05-22T08:33:35;54386.38;;;-144.43;22.67
37486;BME280;23341;50.296;18.960;2023-05-22T08:38:39;54326.34;;;-144.43;22.58
37486;BME280;23341;50.296;18.960;2023-05-22T08:43:45;53527.97;;;-144.43;23.67
37486;BME280;23341;50.296;18.960;2023-05-22T08:48:50;53610.00;;;-144.43;23.70
37486;BME280;23341;50.296;18.960;2023-05-22T08:53:55;53754.06;;;-144.43;22.97
37486;BME280;23341;50.296;18.960;2023-05-22T08:59:01;55028.81;;;-144.43;22.67
37486;BME280;23341;50.296;18.960;2023-05-22T09:04:06;52979.81;;;-144.43;23.63
37486;BME280;23341;50.296;18.960;2023-05-22T09:09:11;52161.69;;;-144.43;25.53
37486;BME280;23341;50.296;18.960;2023-05-22T09:14:17;52121.69;;;-144.43;25.59
37486;BME280;23341;50.296;18.960;2023-05-22T09:19:22;52183.69;;;-144.43;25.73
37486;BME280;23341;50.296;18.960;2023-05-22T09:24:26;52311.72;;;-144.43;26.47
37486;BME280;23341;50.296;18.960;2023-05-22T09:29:38;52193.72;;;-144.43;26.67
37486;BME280;23341;50.296;18.960;2023-05-22T09:34:50;52173.69;;;-144.43;26.22
37486;BME280;23341;50.296;18.960;2023-05-22T09:39:56;52017.69;;;-144.43;27.01
37486;BME280;23341;50.296;18.960;2023-05-22T09:45:07;51647.72;;;-144.43;27.50
37486;BME280;23341;50.296;18.960;2023-05-22T09:50:11;51861.72;;;-144.43;27.74
37486;BME280;23341;50.296;18.960;2023-05-22T09:55:17;51837.72;;;-144.43;27.71
37486;BME280;23341;50.296;18.960;2023-05-22T10:00:25;51851.72;;;-144.43;28.11
37486;BME280;23341;50.296;18.960;2023-05-22T10:05:31;51885.72;;;-144.43;28.41
37486;BME280;23341;50.296;18.960;2023-05-22T10:10:36;51861.72;;;-144.43;27.47
37486;BME280;23341;50.296;18.960;2023-05-22T10:15:44;51751.72;;;-144.43;28.12
37486;BME280;23341;50.296;18.960;2023-05-22T10:20:50;51635.72;;;-144.43;29.00
37486;BME280;23341;50.296;18.960;2023-05-22T10:25:56;51401.75;;;-144.43;29.29
37486;BME280;23341;50.296;18.960;2023-05-22T10:31:05;51415.75;;;-144.43;29.79
37486;BME280;23341;50.296;18.960;2023-05-22T10:36:17;51467.75;;;-144.43;30.31
37486;BME280;23341;50.296;18.960;2023-05-22T10:41:23;51425.75;;;-144.43;30.11
37486;BME280;23341;50.296;18.960;2023-05-22T10:46:32;51447.75;;;-144.43;29.40
37486;BME280;23341;50.296;18.960;2023-05-22T10:51:37;51565.72;;;-144.43;29.60
37486;BME280;23341;50.296;18.960;2023-05-22T10:56:42;51623.72;;;-144.43;30.42
37486;BME280;23341;50.296;18.960;2023-05-22T11:01:59;51639.72;;;-144.43;29.88
37486;BME280;23341;50.296;18.960;2023-05-22T11:07:04;51783.72;;;-144.43;29.08
37486;BME280;23341;50.296;18.960;2023-05-22T11:12:15;51843.72;;;-144.43;29.58
37486;BME280;23341;50.296;18.960;2023-05-22T11:17:22;51885.72;;;-144.43;27.96
37486;BME280;23341;50.296;18.960;2023-05-22T11:22:34;52115.69;;;-144.43;28.81
37486;BME280;23341;50.296;18.960;2023-05-22T11:27:40;51953.69;;;-144.43;28.68
37486;BME280;23341;50.296;18.960;2023-05-22T11:32:46;51905.72;;;-144.43;29.46
37486;BME280;23341;50.296;18.960;2023-05-22T11:37:52;51933.69;;;-144.43;28.30
37486;BME280;23341;50.296;18.960;2023-05-22T11:42:58;51853.72;;;-144.43;28.40
37486;BME280;23341;50.296;18.960;2023-05-22T11:48:03;51829.72;;;-144.43;28.00
37486;BME280;23341;50.296;18.960;2023-05-22T11:53:08;51937.69;;;-144.43;28.23
37486;BME280;23341;50.296;18.960;2023-05-22T11:58:12;51857.72;;;-144.43;27.58
37486;BME280;23341;50.296;18.960;2023-05-22T12:03:18;51901.72;;;-144.43;28.22
37486;BME280;23341;50.296;18.960;2023-05-22T12:08:23;51765.72;;;-144.43;28.08
37486;BME280;23341;50.296;18.960;2023-05-22T12:13:28;51761.72;;;-144.43;29.27
37486;BME280;23341;50.296;18.960;2023-05-22T12:18:35;51437.75;;;-144.43;29.53
37486;BME280;23341;50.296;18.960;2023-05-22T12:23:47;51415.75;;;-144.43;29.13
37486;BME280;23341;50.296;18.960;2023-05-22T12:28:52;51323.78;;;-144.43;29.32
37486;BME280;23341;50.296;18.960;2023-05-22T12:33:58;51299.78;;;-144.43;29.95
37486;BME280;23341;50.296;18.960;2023-05-22T12:39:06;51325.78;;;-144.43;29.83
37486;BME280;23341;50.296;18.960;2023-05-22T12:44:11;51241.78;;;-144.43;29.96
37486;BME280;23341;50.296;18.960;2023-05-22T12:49:17;51707.72;;;-144.43;29.16
37486;BME280;23341;50.296;18.960;2023-05-22T12:54:21;52541.72;;;-144.43;26.57
37486;BME280;23341;50.296;18.960;2023-05-22T12:59:26;53295.91;;;-144.43;26.04
37486;BME280;23341;50.296;18.960;2023-05-22T13:04:32;53728.06;;;-144.43;24.60
37486;BME280;23341;50.296;18.960;2023-05-22T13:09:36;54116.22;;;-144.43;23.72
37486;BME280;23341;50.296;18.960;2023-05-22T13:14:41;53906.13;;;-144.43;23.93
37486;BME280;23341;50.296;18.960;2023-05-22T13:19:47;54786.63;;;-144.43;23.27
37486;BME280;23341;50.296;18.960;2023-05-22T13:24:51;53730.06;;;-144.43;23.71
37486;BME280;23341;50.296;18.960;2023-05-22T13:29:55;53341.91;;;-144.43;23.42
37486;BME280;23341;50.296;18.960;2023-05-22T13:35:01;54242.31;;;-144.43;23.12
37486;BME280;23341;50.296;18.960;2023-05-22T13:40:07;54034.19;;;-144.43;23.17
37486;BME280;23341;50.296;18.960;2023-05-22T13:45:12;53519.97;;;-144.43;24.79
37486;BME280;23341;50.296;18.960;2023-05-22T13:50:18;53826.09;;;-144.43;24.95
37486;BME280;23341;50.296;18.960;2023-05-22T13:55:22;54156.25;;;-144.43;24.44
37486;BME280;23341;50.296;18.960;2023-05-22T14:00:27;53511.97;;;-144.43;25.51
37486;BME280;23341;50.296;18.960;2023-05-22T14:05:34;53586.00;;;-144.43;25.29
37486;BME280;23341;50.296;18.960;2023-05-22T14:10:38;53469.94;;;-144.43;25.94
37486;BME280;23341;50.296;18.960;2023-05-22T14:15:43;53417.94;;;-144.43;25.39
37486;BME280;23341;50.296;18.960;2023-05-22T14:20:50;53874.13;;;-144.43;24.53
37486;BME280;23341;50.296;18.960;2023-05-22T14:25:54;53473.94;;;-144.43;25.07
37486;BME280;23341;50.296;18.960;2023-05-22T14:30:59;53922.13;;;-144.43;24.88
37486;BME280;23341;50.296;18.960;2023-05-22T14:36:05;53003.81;;;-144.43;25.20
37486;BME280;23341;50.296;18.960;2023-05-22T14:41:10;53067.84;;;-144.43;25.71
37486;BME280;23341;50.296;18.960;2023-05-22T14:46:14;53419.94;;;-144.43;24.61
37486;BME280;23341;50.296;18.960;2023-05-22T14:51:20;53249.88;;;-144.43;25.51
37486;BME280;23341;50.296;18.960;2023-05-22T14:56:25;52295.72;;;-144.43;26.67
37486;BME280;23341;50.296;18.960;2023-05-22T15:01:29;51953.69;;;-144.43;28.03
37486;BME280;23341;50.296;18.960;2023-05-22T15:06:36;52267.72;;;-144.43;26.35
37486;BME280;23341;50.296;18.960;2023-05-22T15:11:40;51877.72;;;-144.43;26.73
37486;BME280;23341;50.296;18.960;2023-05-22T15:16:48;52477.72;;;-144.43;26.54
37486;BME280;23341;50.296;18.960;2023-05-22T15:21:54;52239.72;;;-144.43;26.63
37486;BME280;23341;50.296;18.960;2023-05-22T15:27:07;52233.72;;;-144.43;27.04
37486;BME280;23341;50.296;18.960;2023-05-22T15:32:11;52381.72;;;-144.43;26.72
37486;BME280;23341;50.296;18.960;2023-05-22T15:37:17;52065.69;;;-144.43;27.10
37486;BME280;23341;50.296;18.960;2023-05-22T15:42:22;51979.69;;;-144.43;27.22
37486;BME280;23341;50.296;18.960;2023-05-22T15:47:27;52303.72;;;-144.43;27.68
37486;BME280;23341;50.296;18.960;2023-05-22T15:52:33;51905.72;;;-144.43;28.04
37486;BME280;23341;50.296;18.960;2023-05-22T15:57:37;51579.72;;;-144.43;28.78
37486;BME280;23341;50.296;18.960;2023-05-22T16:02:42;51477.75;;;-144.43;28.29
37486;BME280;23341;50.296;18.960;2023-05-22T16:07:48;51373.75;;;-144.43;28.74
37486;BME280;23341;50.296;18.960;2023-05-22T16:12:52;51255.78;;;-144.43;29.14
37486;BME280;23341;50.296;18.960;2023-05-22T16:17:56;51465.75;;;-144.43;28.96
37486;BME280;23341;50.296;18.960;2023-05-22T16:23:02;51519.75;;;-144.43;29.75
37486;BME280;23341;50.296;18.960;2023-05-22T16:28:07;51237.78;;;-144.43;30.11
37486;BME280;23341;50.296;18.960;2023-05-22T16:33:12;51157.81;;;-144.43;30.91
37486;BME280;23341;50.296;18.960;2023-05-22T16:38:18;51001.84;;;-144.43;31.58
37486;BME280;23341;50.296;18.960;2023-05-22T16:43:23;50913.88;;;-144.43;33.46
37486;BME280;23341;50.296;18.960;2023-05-22T16:48:27;50753.91;;;-144.43;33.38
37486;BME280;23341;50.296;18.960;2023-05-22T16:53:33;50739.94;;;-144.43;33.93
37486;BME280;23341;50.296;18.960;2023-05-22T16:58:40;50625.97;;;-144.43;35.18
37486;BME280;23341;50.296;18.960;2023-05-22T17:03:45;50556.00;;;-144.43;35.86
37486;BME280;23341;50.296;18.960;2023-05-22T17:08:50;50558.00;;;-144.43;36.73
37486;BME280;23341;50.296;18.960;2023-05-22T17:13:55;50538.00;;;-144.43;38.21
37486;BME280;23341;50.296;18.960;2023-05-22T17:18:59;50532.00;;;-144.43;38.69
37486;BME280;23341;50.296;18.960;2023-05-22T17:24:06;50490.00;;;-144.43;38.84
37486;BME280;23341;50.296;18.960;2023-05-22T17:29:15;50478.03;;;-144.43;39.02
37486;BME280;23341;50.296;18.960;2023-05-22T17:34:19;50450.03;;;-144.43;39.09
37486;BME280;23341;50.296;18.960;2023-05-22T17:39:25;50390.06;;;-144.43;40.53
37486;BME280;23341;50.296;18.960;2023-05-22T17:44:30;50442.03;;;-144.43;41.54
37486;BME280;23341;50.296;18.960;2023-05-22T17:49:35;50380.06;;;-144.43;41.85
37486;BME280;23341;50.296;18.960;2023-05-22T17:54:41;50286.09;;;-144.43;43.24
37486;BME280;23341;50.296;18.960;2023-05-22T17:59:46;50276.09;;;-144.43;44.79
37486;BME280;23341;50.296;18.960;2023-05-22T18:04:50;50278.09;;;-144.43;45.72
37486;BME280;23341;50.296;18.960;2023-05-22T18:09:56;50214.13;;;-144.43;46.11
37486;BME280;23341;50.296;18.960;2023-05-22T18:15:00;50222.13;;;-144.43;46.94
37486;BME280;23341;50.296;18.960;2023-05-22T18:20:06;50212.13;;;-144.43;48.36
37486;BME280;23341;50.296;18.960;2023-05-22T18:25:15;50194.16;;;-144.43;50.04
37486;BME280;23341;50.296;18.960;2023-05-22T18:30:19;50162.16;;;-144.43;50.25
37486;BME280;23341;50.296;18.960;2023-05-22T18:35:24;50134.16;;;-144.43;50.34
37486;BME280;23341;50.296;18.960;2023-05-22T18:40:31;50114.19;;;-144.43;51.96
37486;BME280;23341;50.296;18.960;2023-05-22T18:45:35;50110.19;;;-144.43;51.78
37486;BME280;23341;50.296;18.960;2023-05-22T18:50:39;50080.19;;;-144.43;52.08
37486;BME280;23341;50.296;18.960;2023-05-22T18:55:46;50102.19;;;-144.43;53.63
37486;BME280;23341;50.296;18.960;2023-05-22T19:00:50;50052.22;;;-144.43;53.94
37486;BME280;23341;50.296;18.960;2023-05-22T19:05:57;50032.22;;;-144.43;55.08
37486;BME280;23341;50.296;18.960;2023-05-22T19:11:03;50012.22;;;-144.43;55.96
37486;BME280;23341;50.296;18.960;2023-05-22T19:16:07;50036.22;;;-144.43;56.15
37486;BME280;23341;50.296;18.960;2023-05-22T19:21:12;49998.25;;;-144.43;56.34
37486;BME280;23341;50.296;18.960;2023-05-22T19:26:18;49980.25;;;-144.43;57.51
37486;BME280;23341;50.296;18.960;2023-05-22T19:31:23;50002.25;;;-144.43;59.00
37486;BME280;23341;50.296;18.960;2023-05-22T19:36:28;49972.25;;;-144.43;59.75
37486;BME280;23341;50.296;18.960;2023-05-22T19:41:35;49946.28;;;-144.43;60.00
37486;BME280;23341;50.296;18.960;2023-05-22T19:46:39;49930.28;;;-144.43;59.41
37486;BME280;23341;50.296;18.960;2023-05-22T19:51:44;49922.28;;;-144.43;60.75
37486;BME280;23341;50.296;18.960;2023-05-22T19:56:50;49924.28;;;-144.43;60.70
37486;BME280;23341;50.296;18.960;2023-05-22T20:01:55;49926.28;;;-144.43;60.22
37486;BME280;23341;50.296;18.960;2023-05-22T20:07:00;49908.28;;;-144.43;61.35
37486;BME280;23341;50.296;18.960;2023-05-22T20:12:07;49916.28;;;-144.43;61.83
37486;BME280;23341;50.296;18.960;2023-05-22T20:17:12;49898.28;;;-144.43;61.55
37486;BME280;23341;50.296;18.960;2023-05-22T20:22:17;49864.31;;;-144.43;61.68
37486;BME280;23341;50.296;18.960;2023-05-22T20:27:23;49846.31;;;-144.43;61.98
37486;BME280;23341;50.296;18.960;2023-05-22T20:32:27;49872.31;;;-144.43;62.54
37486;BME280;23341;50.296;18.960;2023-05-22T20:37:33;49834.34;;;-144.43;63.57
37486;BME280;23341;50.296;18.960;2023-05-22T20:42:40;49838.31;;;-144.43;64.00
37486;BME280;23341;50.296;18.960;2023-05-22T20:47:45;49842.31;;;-144.43;64.56
37486;BME280;23341;50.296;18.960;2023-05-22T20:52:50;49798.34;;;-144.43;64.51
37486;BME280;23341;50.296;18.960;2023-05-22T20:57:56;49782.34;;;-144.43;65.25
37486;BME280;23341;50.296;18.960;2023-05-22T21:03:00;49782.34;;;-144.43;65.94
37486;BME280;23341;50.296;18.960;2023-05-22T21:08:05;49790.34;;;-144.43;66.39
37486;BME280;23341;50.296;18.960;2023-05-22T21:13:11;49782.34;;;-144.43;66.61
37486;BME280;23341;50.296;18.960;2023-05-22T21:18:16;49790.34;;;-144.43;66.56
37486;BME280;23341;50.296;18.960;2023-05-22T21:23:21;49798.34;;;-144.43;66.85
37486;BME280;23341;50.296;18.960;2023-05-22T21:28:27;49782.34;;;-144.43;68.39
37486;BME280;23341;50.296;18.960;2023-05-22T21:33:32;49730.38;;;-144.43;68.74
37486;BME280;23341;50.296;18.960;2023-05-22T21:38:36;49748.38;;;-144.43;68.25
37486;BME280;23341;50.296;18.960;2023-05-22T21:43:42;49732.38;;;-144.43;69.47
37486;BME280;23341;50.296;18.960;2023-05-22T21:48:47;49720.41;;;-144.43;68.93
37486;BME280;23341;50.296;18.960;2023-05-22T21:53:51;49740.38;;;-144.43;69.41
37486;BME280;23341;50.296;18.960;2023-05-22T21:58:57;49690.41;;;-144.43;70.05
37486;BME280;23341;50.296;18.960;2023-05-22T22:04:02;49702.41;;;-144.43;70.86
37486;BME280;23341;50.296;18.960;2023-05-22T22:09:06;49734.38;;;-144.43;70.16
37486;BME280;23341;50.296;18.960;2023-05-22T22:14:12;49694.41;;;-144.43;70.55
37486;BME280;23341;50.296;18.960;2023-05-22T22:19:16;49710.41;;;-144.43;71.21
37486;BME280;23341;50.296;18.960;2023-05-22T22:24:21;49694.41;;;-144.43;71.56
37486;BME280;23341;50.296;18.960;2023-05-22T22:29:27;49690.41;;;-144.43;71.08
37486;BME280;23341;50.296;18.960;2023-05-22T22:34:32;49676.41;;;-144.43;71.42
37486;BME280;23341;50.296;18.960;2023-05-22T22:39:36;49730.38;;;-144.43;72.83
37486;BME280;23341;50.296;18.960;2023-05-22T22:44:42;49698.41;;;-144.43;71.45
37486;BME280;23341;50.296;18.960;2023-05-22T22:49:46;49672.44;;;-144.43;71.61
37486;BME280;23341;50.296;18.960;2023-05-22T22:54:51;49678.41;;;-144.43;71.93
37486;BME280;23341;50.296;18.960;2023-05-22T22:59:57;49658.44;;;-144.43;72.30
37486;BME280;23341;50.296;18.960;2023-05-22T23:05:01;49668.44;;;-144.43;73.10
37486;BME280;23341;50.296;18.960;2023-05-22T23:10:07;49656.44;;;-144.43;73.80
37486;BME280;23341;50.296;18.960;2023-05-22T23:15:13;49646.44;;;-144.43;73.28
37486;BME280;23341;50.296;18.960;2023-05-22T23:20:18;49640.44;;;-144.43;73.92
37486;BME280;23341;50.296;18.960;2023-05-22T23:25:22;49666.44;;;-144.43;74.19
37486;BME280;23341;50.296;18.960;2023-05-22T23:30:28;49634.44;;;-144.43;75.21
37486;BME280;23341;50.296;18.960;2023-05-22T23:35:33;49644.44;;;-144.43;75.43
37486;BME280;23341;50.296;18.960;2023-05-22T23:40:37;49622.47;;;-144.43;75.14
37486;BME280;23341;50.296;18.960;2023-05-22T23:45:43;49662.44;;;-144.43;75.45
37486;BME280;23341;50.296;18.960;2023-05-22T23:50:47;49658.44;;;-144.43;75.69
37486;BME280;23341;50.296;18.960;2023-05-22T23:55:52;49634.44;;;-144.43;77.07
